• Join FlightAware (Why Join?)
  • Login
  • US Flag 
12:42AM EDT


 

Airport Tracker/Info


-or-


 

Live Flight TrackerFlight Track Log ✈ UAL623 ✈ 10-May-2013 ✈ KORD - KLAX

Flight Track Log - Related Links

Times and Time Zones

All times are in EDT time to prevent confusion due to time zone crossing. See the UAL623 flight status page for this flight to view local times or setup timezone preferences in your user account.

Time Position Orientation Groundspeed Altitude Reporting Facility
EDT Latitude Longitude Course Direction KTS MPH feet Rate Location/Type
07:48PM 41.9789 -88.5783 256° West 365 420 19,300  Level Chicago Center
07:49PM 41.9531 -88.7133 256° West 374 430 21,900 2,160 Climbing Chicago Center
07:50PM 41.9353 -88.8500 260° West 374 430 23,800 1,680 Climbing Chicago Center
07:51PM 41.9161 -88.9908 260° West 386 444 25,400 1,500 Climbing Chicago Center
07:52PM 41.8986 -89.1375 265° West 398 458 27,000 1,740 Climbing Chicago Center
07:53PM 41.8753 -89.3186 260° West 411 473 29,100 1,560 Climbing Chicago Center
07:54PM 41.8578 -89.4686 261° West 411 473 30,300 1,260 Climbing Chicago Center
07:55PM 41.8367 -89.6231 260° West 420 483 31,800 1,500 Climbing Chicago Center
07:56PM 41.8175 -89.7742 260° West 416 479 33,400 1,440 Climbing Chicago Center
07:57PM 41.7961 -89.9456 261° West 415 478 34,800 1,140 Climbing Chicago Center
07:58PM 41.7772 -90.0969 261° West 415 478 35,800 540 Climbing Chicago Center
07:59PM 41.7592 -90.2447 261° West 408 470 36,000 60 Climbing Chicago Center
08:00PM 41.7325 -90.4286 259° West 415 478 36,000  Level Chicago Center
08:01PM 41.7133 -90.5769 260° West 407 468 36,000  Level Chicago Center
08:02PM 41.6928 -90.7200 259° West 407 468 36,000  Level Chicago Center
08:03PM 41.6731 -90.8664 260° West 404 465 36,000  Level Chicago Center
08:04PM 41.6525 -91.0144 260° West 406 467 36,000  Level Chicago Center
08:05PM 41.6281 -91.1911 260° West 405 466 36,000  Level Chicago Center
08:06PM 41.6067 -91.3394 259° West 406 467 36,000  Level Chicago Center
08:07PM 41.5853 -91.4864 259° West 406 467 36,000  Level Chicago Center
08:08PM 41.5636 -91.6333 259° West 405 466 36,000  Level Chicago Center
08:09PM 41.5428 -91.7803 259° West 405 466 36,000  Level Chicago Center
08:10PM 41.5164 -91.9569 259° West 407 468 36,000  Level Chicago Center
08:11PM 41.4936 -92.1044 258° West 408 470 36,000  Level Chicago Center
08:13PM 41.4725 -92.2522 259° West 408 470 36,000  Level Chicago Center
08:14PM 41.4469 -92.4089 258° West 408 470 36,000  Level Chicago Center
08:15PM 41.4239 -92.5581 258° West 411 473 36,000  Level Chicago Center
08:16PM 41.4011 -92.7081 259° West 416 479 36,000  Level Chicago Center
08:16PM 41.3919 -92.7692 259° West 416 479 36,000  Level Minneapolis Center
08:17PM 41.3689 -92.9167 258° West 414 476 36,000  Level Minneapolis Center
08:18PM 41.3403 -93.0961 258° West 417 480 36,000  Level Minneapolis Center
08:19PM 41.3156 -93.2456 258° West 417 480 36,000  Level Minneapolis Center
08:20PM 41.2922 -93.3958 258° West 418 481 36,000  Level Minneapolis Center
08:21PM 41.2675 -93.5450 258° West 419 482 36,000  Level Minneapolis Center
08:22PM 41.2442 -93.6933 258° West 416 479 36,000  Level Minneapolis Center
08:23PM 41.2133 -93.8750 257° West 424 488 36,000  Level Minneapolis Center
08:24PM 41.1869 -94.0269 257° West 426 490 36,000  Level Minneapolis Center
08:25PM 41.1617 -94.1803 258° West 428 493 36,000  Level Minneapolis Center
08:26PM 41.1358 -94.3333 257° West 430 495 36,000  Level Minneapolis Center
08:27PM 41.1092 -94.4864 257° West 431 496 36,000  Level Minneapolis Center
08:28PM 41.0800 -94.6564 257° West 433 498 36,000  Level Minneapolis Center
08:29PM 41.0517 -94.8119 256° West 433 498 36,000  Level Minneapolis Center
08:30PM 41.0242 -94.9678 257° West 433 498 36,000  Level Minneapolis Center
08:31PM 40.9906 -95.1550 257° West 434 499 36,000  Level Minneapolis Center
08:32PM 40.9675 -95.2803 256° West 436 502 36,000  Level Minneapolis Center
08:34PM 40.9339 -95.4681 257° West 435 501 36,000  Level Minneapolis Center
08:35PM 40.9042 -95.6253 256° West 436 502 36,000  Level Minneapolis Center
08:36PM 40.8758 -95.7814 257° West 435 501 36,000  Level Minneapolis Center
08:37PM 40.8464 -95.9397 256° West 439 505 36,000  Level Minneapolis Center
08:38PM 40.8167 -96.0975 256° West 440 506 36,000  Level Minneapolis Center
08:39PM 40.7872 -96.2561 256° West 442 509 36,000  Level Minneapolis Center
08:40PM 40.7569 -96.4153 256° West 443 510 36,000  Level Minneapolis Center
08:41PM 40.7211 -96.6058 256° West 445 512 36,000  Level Minneapolis Center
08:42PM 40.6900 -96.7639 255° West 445 512 36,000  Level Minneapolis Center
08:43PM 40.6592 -96.9225 256° West 445 512 36,000  Level Minneapolis Center
08:44PM 40.6272 -97.0814 255° West 447 514 36,000  Level Minneapolis Center
08:45PM 40.5958 -97.2417 256° West 449 517 36,000  Level Minneapolis Center
08:46PM 40.5650 -97.4017 256° West 449 517 36,000  Level Minneapolis Center
08:47PM 40.5314 -97.5628 255° West 452 520 36,000  Level Minneapolis Center
08:48PM 40.4917 -97.7544 255° West 452 520 36,000  Level Minneapolis Center
08:49PM 40.4589 -97.9164 255° West 455 524 36,000  Level Minneapolis Center
08:50PM 40.4247 -98.0769 254° West 456 525 36,000  Level Minneapolis Center
08:51PM 40.3917 -98.2383 255° West 456 525 36,000  Level Minneapolis Center
08:52PM 40.3567 -98.4006 254° West 459 528 36,000  Level Minneapolis Center
08:53PM 40.3236 -98.5619 255° West 458 527 36,000  Level Minneapolis Center
08:54PM 40.2883 -98.7242 254° West 460 529 36,000  Level Minneapolis Center
08:55PM 40.2544 -98.8858 255° West 457 526 36,000  Level Denver Center
08:56PM 40.2194 -99.0469 254° West 459 528 36,000  Level Denver Center
08:57PM 40.1778 -99.2408 254° West 459 528 36,000  Level Denver Center
08:58PM 40.1414 -99.4014 254° West 460 529 36,000  Level Denver Center
08:59PM 40.1047 -99.5619 253° West 461 531 36,000  Level Denver Center
09:00PM 40.0689 -99.7239 254° West 463 533 36,000  Level Denver Center
09:01PM 40.0322 -99.8844 253° West 462 532 36,000  Level Denver Center
09:02PM 39.9878 -100.0786 253° West 465 535 36,000  Level Denver Center
09:04PM 39.9508 -100.2406 253° West 465 535 36,000  Level Denver Center
09:05PM 39.9169 -100.3889 253° West 468 539 36,000  Level Denver Center
09:06PM 39.8753 -100.5697 253° West 468 539 36,000  Level Denver Center
09:07PM 39.8386 -100.7244 253° West 467 537 36,000  Level Denver Center
09:08PM 39.7964 -100.9064 253° West 469 540 36,000  Level Denver Center
09:09PM 39.7658 -101.0364 253° West 470 541 36,000  Level Denver Center
09:10PM 39.7161 -101.2406 252° West 466 536 36,000  Level Denver Center
09:11PM 39.6789 -101.3933 252° West 463 533 36,000  Level Denver Center
09:12PM 39.6422 -101.5469 253° West 464 534 36,000  Level Denver Center
09:13PM 39.5978 -101.7269 252° West 469 540 36,000  Level Denver Center
09:14PM 39.5669 -101.8561 253° West 470 541 36,000  Level Denver Center
09:15PM 39.5158 -102.0619 252° West 472 543 36,000  Level Denver Center
09:16PM 39.4778 -102.2167 252° West 471 542 36,000  Level Denver Center
09:17PM 39.4322 -102.3978 252° West 475 547 36,000  Level Denver Center
09:18PM 39.3936 -102.5533 252° West 474 545 36,000  Level Denver Center
09:19PM 39.3517 -102.7153 252° West 474 545 36,000  Level Denver Center
09:20PM 39.3100 -102.8781 252° West 473 544 36,000  Level Denver Center
09:21PM 39.2639 -103.0578 252° West 473 544 36,000  Level Denver Center
09:22PM 39.2239 -103.2103 251° West 470 541 36,000  Level Denver Center
09:23PM 39.1772 -103.3878 251° West 468 539 36,000  Level Denver Center
09:24PM 39.1364 -103.5383 251° West 465 535 36,000  Level Denver Center
09:25PM 39.0842 -103.7394 252° West 465 535 36,000  Level Denver Center
09:26PM 39.0447 -103.8900 251° West 465 535 36,000  Level Denver Center
09:27PM 38.9972 -104.0650 251° West 466 536 36,000  Level Denver Center
09:28PM 38.9558 -104.2150 251° West 466 536 36,000  Level Denver Center
09:29PM 38.9217 -104.3411 251° West 469 540 36,000  Level Denver Center
09:30PM 38.8664 -104.5422 251° West 471 542 36,000  Level Denver Center
09:31PM 38.8186 -104.7147 250° West 464 534 36,000  Level Denver Center
09:33PM 38.7600 -104.8528 241° Southwest 462 532 36,000  Level Denver Center
09:34PM 38.6986 -104.9908 240° Southwest 466 536 36,000  Level Denver Center
09:35PM 38.6281 -105.1503 241° Southwest 463 533 36,000  Level Denver Center
09:36PM 38.5692 -105.2872 241° Southwest 461 531 36,000  Level Denver Center
09:37PM 38.5000 -105.4464 241° Southwest 459 528 36,000  Level Denver Center
09:38PM 38.4417 -105.5828 241° Southwest 459 528 36,000  Level Denver Center
09:39PM 38.3717 -105.7411 241° Southwest 458 527 36,000  Level Denver Center
09:40PM 38.3133 -105.8761 241° Southwest 457 526 36,000  Level Denver Center
09:41PM 38.2450 -106.0319 241° Southwest 454 522 36,000  Level Denver Center
09:42PM 38.1892 -106.1758 244° Southwest 447 514 36,000  Level Denver Center
09:43PM 38.1414 -106.3217 247° West 446 513 36,000  Level Denver Center
09:44PM 38.0983 -106.4694 250° West 444 511 36,100 480 Climbing Denver Center
09:45PM 38.0492 -106.6275 248° West 446 513 37,100 780 Climbing Denver Center
09:46PM 38.0039 -106.7686 248° West 452 520 37,800 420 Climbing Denver Center
09:47PM 37.9519 -106.9353 248° West 456 525 38,000 60 Climbing Denver Center
09:48PM 37.9064 -107.0783 248° West 458 527 38,000  Level Denver Center
09:49PM 37.8561 -107.2372 248° West 454 522 38,000  Level Denver Center
09:51PM 37.7586 -107.5436 248° West 454 522 38,000  Level Denver Center
09:52PM 37.7142 -107.6836 248° West 451 519 38,000  Level Denver Center
09:53PM 37.6617 -107.8469 248° West 451 519 38,000  Level Denver Center
09:54PM 37.6156 -107.9872 247° West 453 521 38,000  Level Denver Center
09:55PM 37.5536 -108.1739 247° West 454 522 38,000  Level Denver Center
09:56PM 37.5083 -108.3142 248° West 452 520 38,000  Level Denver Center
09:57PM 37.4536 -108.4786 247° West 454 522 38,000  Level Denver Center
09:59PM 37.4061 -108.6183 247° West 454 522 38,000  Level Denver Center
10:00PM 37.3522 -108.7844 248° West 459 528 38,000  Level Denver Center
10:01PM 37.3042 -108.9242 247° West 458 527 38,000  Level Denver Center
10:02PM 37.2489 -109.0897 247° West 461 531 38,000  Level Denver Center
10:03PM 37.2000 -109.2306 246° West 461 531 38,000  Level Denver Center
10:04PM 37.1444 -109.3953 247° West 460 529 38,000  Level Denver Center
10:05PM 37.0958 -109.5364 247° West 461 531 38,000  Level Denver Center
10:06PM 37.0386 -109.7017 247° West 464 534 38,000  Level Denver Center
10:07PM 36.9903 -109.8400 246° West 459 528 38,000  Level Denver Center
10:08PM 36.9508 -109.9561 247° West 457 526 38,000  Level Denver Center
10:09PM 36.8867 -110.1403 247° West 455 524 38,000  Level Denver Center
10:10PM 36.8347 -110.2858 246° West 456 525 38,000  Level Denver Center
10:11PM 36.7844 -110.4289 246° West 451 519 38,000  Level Denver Center
10:12PM 36.7322 -110.5750 246° West 458 527 38,000  Level Denver Center
10:13PM 36.6803 -110.7192 246° West 458 527 38,000  Level Denver Center
10:14PM 36.6200 -110.8922 247° West 454 522 38,000  Level Denver Center
10:15PM 36.5678 -111.0378 246° West 458 527 38,000  Level Denver Center
10:16PM 36.5147 -111.1831 246° West 460 529 38,000  Level Denver Center
10:17PM 36.4608 -111.3283 245° Southwest 461 531 38,000  Level Denver Center
10:18PM 36.4094 -111.4708 246° West 456 525 38,000  Level Denver Center
10:19PM 36.3564 -111.6144 245° Southwest 456 525 38,000  Level Denver Center
10:20PM 36.3042 -111.7564 245° Southwest 455 524 38,000  Level Denver Center
10:21PM 36.2506 -111.8981 245° Southwest 453 521 38,000  Level Denver Center
10:22PM 36.1883 -112.0714 246° West 457 526 38,000  Level Denver Center
10:23PM 36.1325 -112.2158 244° Southwest 462 532 38,000  Level Denver Center
10:24PM 36.0792 -112.3600 245° Southwest 455 524 38,000  Level Los Angeles Center
10:25PM 36.0253 -112.5033 245° Southwest 457 526 38,000  Level Los Angeles Center
10:26PM 35.9569 -112.6806 245° Southwest 470 541 38,000  Level Los Angeles Center
10:27PM 35.9106 -112.8025 245° Southwest 464 534 38,000  Level Los Angeles Center
10:28PM 35.8453 -112.9739 245° Southwest 467 537 38,000  Level Los Angeles Center
10:30PM 35.7908 -113.1158 245° Southwest 466 536 38,000  Level Los Angeles Center
10:31PM 35.7358 -113.2569 244° Southwest 465 535 38,000  Level Los Angeles Center
10:32PM 35.6811 -113.3972 244° Southwest 463 533 38,000  Level Los Angeles Center
10:33PM 35.6253 -113.5381 244° Southwest 464 534 38,000  Level Los Angeles Center
10:34PM 35.5686 -113.6797 244° Southwest 465 535 38,000  Level Los Angeles Center
10:35PM 35.4994 -113.8500 244° Southwest 470 541 38,000  Level Los Angeles Center
10:36PM 35.4417 -113.9939 244° Southwest 474 545 38,000  Level Los Angeles Center
10:37PM 35.3842 -114.1317 243° Southwest 473 544 38,000  Level Los Angeles Center
10:38PM 35.3250 -114.2753 243° Southwest 471 542 38,000  Level Los Angeles Center
10:39PM 35.2539 -114.4486 243° Southwest 473 544 38,000  Level Los Angeles Center
10:40PM 35.1947 -114.5894 243° Southwest 467 537 38,000  Level Los Angeles Center
10:41PM 35.1342 -114.7378 244° Southwest 478 550 38,000  Level Los Angeles Center
10:42PM 35.0733 -114.8822 243° Southwest 478 550 38,000  Level Los Angeles Center
10:43PM 35.0250 -114.9978 243° Southwest 477 549 38,000  Level Los Angeles Center
10:44PM 34.9536 -115.1706 243° Southwest 474 545 38,000  Level Los Angeles Center
10:45PM 34.8933 -115.3125 243° Southwest 472 543 38,000  Level Los Angeles Center
10:46PM 34.8328 -115.4542 243° Southwest 470 541 38,000  Level Los Angeles Center
10:47PM 34.7706 -115.6011 243° Southwest 471 542 38,000  Level Los Angeles Center
10:48PM 34.7106 -115.7419 243° Southwest 470 541 38,000 -420 Level Los Angeles Center
10:49PM 34.6494 -115.8842 242° Southwest 473 544 37,200 -1,440 Descending Los Angeles Center
10:50PM 34.5867 -116.0281 242° Southwest 480 552 35,100 -2,400 Descending Los Angeles Center
10:51PM 34.5086 -116.2047 242° Southwest 493 567 32,400 -2,700 Descending Los Angeles Center
10:52PM 34.4422 -116.3503 241° Southwest 493 567 29,600 -2,220 Descending Los Angeles Center
10:53PM 34.3806 -116.4894 242° Southwest 485 558 27,500 -2,100 Descending Los Angeles Center
10:54PM 34.3144 -116.6433 243° Southwest 447 514 24,900 -2,400 Descending Los Angeles Center
10:55PM 34.2578 -116.7714 242° Southwest 431 496 22,600 -2,280 Descending Los Angeles Center
10:56PM 34.2022 -116.8939 241° Southwest 420 483 20,300 -1,920 Descending Los Angeles Center
10:57PM 34.1497 -117.0153 242° Southwest 409 471 18,700 -1,860 Descending Los Angeles Center
10:58PM 34.0883 -117.1503 241° Southwest 391 450 16,600 -1,980 Descending Los Angeles Center
10:59PM 34.0667 -117.2000 242° Southwest 408 470 16,000 -1,860 Descending Southern California TRACON
11:00PM 34.0500 -117.3167 260° West 393 452 14,300 -1,920 Descending Southern California TRACON
11:01PM 34.0333 -117.4333 260° West 374 430 12,400 -1,680 Descending Southern California TRACON
11:02PM 34.0167 -117.5667 261° West 375 432 10,800 -1,080 Descending Southern California TRACON
11:03PM 34.0000 -117.6667 259° West 332 382 10,300 -840 Descending Southern California TRACON
11:04PM 34.0000 -117.7667 270° West 295 339 9,300 -1,200 Descending Southern California TRACON
11:05PM 33.9833 -117.8500 256° West 295 339 8,100 -1,200 Descending Southern California TRACON
11:06PM 33.9833 -117.9667 270° West 287 330 6,900 -900 Descending Southern California TRACON
11:07PM 33.9667 -118.0333 253° West 262 302 6,300 -600 Descending Southern California TRACON
11:08PM 33.9667 -118.1167 270° West 218 251 5,800 -1,200 Descending Southern California TRACON
11:09PM 33.9500 -118.1833 253° West 200 230 4,000 -1,620 Descending Southern California TRACON
11:10PM 33.9517 -118.2481 272° West 200 230 2,400 -1,200 Descending Los Angeles Center
11:11PM 33.9458 -118.3039 263° West 184 212 1,500 -900 Descending Los Angeles Center
11:12PM 33.9411 -118.3542 264° West 146 168 600 -660 Descending Los Angeles Center
11:13PM 33.9389 -118.3792 264° West 138 159 200 -420 Descending Los Angeles Center
11:15PM 33.9333 -118.4000 259° West  Level FlightAware Approximate
11:22PM 33.9425 -118.4081 259° West  Level Estimated